createdAt,value
2024-02-24T00:00:55.521Z,6.40
2024-02-24T00:01:58.872Z,7.30
2024-02-24T00:03:02.269Z,7.00
2024-02-24T00:04:06.386Z,6.10
2024-02-24T00:05:10.231Z,6.20
2024-02-24T00:06:16.043Z,4.30
2024-02-24T00:07:18.788Z,6.20
2024-02-24T00:08:22.447Z,7.30
2024-02-24T00:09:26.982Z,6.90
2024-02-24T00:10:30.347Z,6.30
2024-02-24T00:11:34.193Z,6.40
2024-02-24T00:12:38.516Z,5.40
2024-02-24T00:13:41.876Z,5.20
2024-02-24T00:14:59.563Z,5.80
2024-02-24T00:16:06.998Z,6.50
2024-02-24T00:17:09.780Z,7.00
2024-02-24T00:18:14.091Z,4.90
2024-02-24T00:19:18.454Z,6.30
2024-02-24T00:20:21.560Z,7.20
2024-02-24T00:21:24.454Z,6.30
2024-02-24T00:22:28.736Z,5.55
2024-02-24T00:23:31.495Z,6.60
2024-02-24T00:24:34.224Z,3.64
2024-02-24T00:25:36.959Z,6.18
2024-02-24T00:26:40.639Z,5.90
2024-02-24T00:27:43.894Z,5.50
2024-02-24T00:28:47.744Z,5.80
2024-02-24T00:29:50.400Z,5.90
2024-02-24T00:30:55.067Z,6.50
2024-02-24T00:31:58.451Z,5.50
2024-02-24T00:33:02.787Z,5.60
2024-02-24T00:34:06.204Z,6.20
2024-02-24T00:35:09.583Z,6.60
2024-02-24T00:36:12.660Z,3.80
2024-02-24T00:37:15.691Z,5.90
2024-02-24T00:38:19.378Z,6.50
2024-02-24T00:39:22.964Z,6.50
2024-02-24T00:40:25.943Z,6.20
2024-02-24T00:41:29.145Z,6.00
2024-02-24T00:42:33.583Z,7.20
2024-02-24T00:43:38.674Z,5.50
2024-02-24T00:44:41.467Z,4.90
2024-02-24T00:45:45.736Z,6.30
2024-02-24T00:46:48.467Z,5.40
2024-02-24T00:47:51.408Z,6.70
2024-02-24T00:48:54.403Z,6.00
2024-02-24T00:49:58.057Z,6.30
2024-02-24T00:51:01.343Z,6.10
2024-02-24T00:52:05.048Z,6.30
2024-02-24T00:53:08.143Z,5.30
2024-02-24T00:54:11.788Z,6.30
2024-02-24T00:55:15.395Z,4.80
2024-02-24T00:56:18.332Z,6.90
2024-02-24T00:57:22.190Z,5.80
2024-02-24T00:58:25.842Z,5.90
2024-02-24T00:59:28.820Z,6.27
2024-02-24T01:00:32.146Z,6.50
2024-02-24T01:01:35.298Z,6.50
2024-02-24T01:02:39.364Z,5.20
2024-02-24T01:03:42.089Z,4.90
2024-02-24T01:04:46.079Z,4.70
2024-02-24T01:05:49.033Z,4.70
2024-02-24T01:06:52.103Z,6.30
2024-02-24T01:07:57.057Z,6.36
2024-02-24T01:08:59.916Z,6.20
2024-02-24T01:10:04.852Z,6.60
2024-02-24T01:11:10.288Z,5.30
2024-02-24T01:12:13.273Z,1.00
2024-02-24T01:13:16.839Z,4.50
2024-02-24T01:14:20.295Z,7.30
2024-02-24T01:15:23.914Z,6.40
2024-02-24T01:16:28.330Z,6.80
2024-02-24T01:17:31.138Z,5.80
2024-02-24T01:18:34.405Z,3.30
2024-02-24T01:19:39.269Z,5.36
2024-02-24T01:20:44.504Z,5.50
2024-02-24T01:21:48.785Z,5.90
2024-02-24T01:22:56.864Z,5.60
2024-02-24T01:24:00.847Z,1.00
2024-02-24T01:25:05.709Z,5.90
2024-02-24T01:26:08.967Z,5.20
2024-02-24T01:27:11.614Z,6.00
2024-02-24T01:28:14.934Z,5.60
2024-02-24T01:29:17.806Z,4.36
2024-02-24T01:30:21.871Z,6.18
2024-02-24T01:31:25.991Z,5.90
2024-02-24T01:32:30.800Z,5.00
2024-02-24T01:33:34.834Z,5.90
2024-02-24T01:34:38.500Z,5.70
2024-02-24T01:35:41.140Z,5.90
2024-02-24T01:37:57.651Z,5.10
2024-02-24T01:39:00.962Z,6.10
2024-02-24T01:40:07.736Z,5.10
2024-02-24T01:41:11.374Z,5.70
2024-02-24T01:42:14.187Z,4.90
2024-02-24T01:43:26.493Z,4.90
2024-02-24T01:44:30.962Z,5.90
2024-02-24T01:45:33.848Z,1.70
2024-02-24T01:46:36.746Z,5.27
2024-02-24T01:47:41.347Z,5.10
2024-02-24T01:48:44.962Z,5.00
2024-02-24T01:49:47.738Z,5.70
2024-02-24T01:50:51.322Z,5.64
2024-02-24T01:51:54.044Z,5.50
2024-02-24T01:52:58.064Z,5.00
2024-02-24T01:54:00.665Z,4.30
2024-02-24T01:55:05.047Z,5.30
2024-02-24T01:56:10.556Z,4.40
2024-02-24T01:57:13.371Z,5.60
2024-02-24T01:58:20.432Z,5.70
2024-02-24T01:59:27.095Z,4.90
2024-02-24T02:00:30.834Z,4.90
2024-02-24T02:01:34.967Z,5.70
2024-02-24T02:02:40.195Z,6.50
2024-02-24T02:03:43.521Z,4.90
2024-02-24T02:04:47.272Z,6.30
2024-02-24T02:05:50.762Z,5.82
2024-02-24T02:06:54.328Z,5.10
2024-02-24T02:07:58.609Z,5.10
2024-02-24T02:09:03.520Z,5.20
2024-02-24T02:10:09.450Z,6.40
2024-02-24T02:11:13.333Z,5.20
2024-02-24T02:12:16.856Z,4.80
2024-02-24T02:14:34.708Z,5.90
2024-02-24T02:15:37.475Z,3.70
2024-02-24T02:16:41.881Z,5.40
2024-02-24T02:17:47.116Z,5.10
2024-02-24T02:18:52.021Z,5.33
2024-02-24T02:20:03.732Z,4.90
2024-02-24T02:21:07.613Z,5.00
2024-02-24T02:22:11.826Z,4.40
2024-02-24T02:23:15.414Z,5.90
2024-02-24T02:24:19.466Z,5.20
2024-02-24T02:25:24.071Z,4.90
2024-02-24T02:26:26.791Z,5.00
2024-02-24T02:27:30.686Z,5.30
2024-02-24T02:28:34.399Z,4.60
2024-02-24T02:29:38.431Z,5.00
2024-02-24T02:30:42.192Z,5.60
2024-02-24T02:31:45.397Z,4.90
2024-02-24T02:32:48.229Z,5.00
2024-02-24T02:33:53.360Z,4.60
2024-02-24T02:34:57.734Z,5.10
2024-02-24T02:36:02.137Z,4.60
2024-02-24T02:37:08.438Z,4.50
2024-02-24T02:38:11.911Z,4.70
2024-02-24T02:39:15.779Z,4.70
2024-02-24T02:40:19.734Z,5.20
2024-02-24T02:41:22.481Z,5.64
2024-02-24T02:42:25.747Z,5.09
2024-02-24T02:43:29.566Z,6.50
2024-02-24T02:44:32.463Z,4.50
2024-02-24T02:45:35.427Z,5.20
2024-02-24T02:46:38.191Z,3.80
2024-02-24T02:47:41.252Z,4.50
2024-02-24T02:48:46.575Z,4.60
2024-02-24T02:49:49.233Z,5.00
2024-02-24T02:50:52.585Z,4.64
2024-02-24T02:51:56.105Z,4.60
2024-02-24T02:53:00.085Z,4.50
2024-02-24T02:54:04.310Z,4.70
2024-02-24T02:55:07.669Z,4.40
2024-02-24T02:56:13.304Z,4.60
2024-02-24T02:58:30.478Z,1.20
2024-02-24T02:59:36.534Z,4.40
2024-02-24T03:00:39.984Z,4.10
2024-02-24T03:03:07.269Z,4.30
2024-02-24T03:04:10.120Z,5.20
2024-02-24T03:05:14.274Z,3.36
2024-02-24T03:07:33.686Z,4.90
2024-02-24T03:08:37.614Z,4.18
2024-02-24T03:09:47.187Z,5.10
2024-02-24T03:10:52.115Z,4.50
2024-02-24T03:11:55.249Z,4.80
2024-02-24T03:12:59.337Z,4.50
2024-02-24T03:14:03.503Z,4.70
2024-02-24T03:15:08.986Z,4.80
2024-02-24T03:16:12.032Z,4.40
2024-02-24T03:17:14.589Z,4.18
2024-02-24T03:18:18.006Z,5.20
2024-02-24T03:19:20.916Z,4.60
2024-02-24T03:20:23.995Z,5.00
2024-02-24T03:22:46.033Z,4.20
2024-02-24T03:24:02.314Z,4.70
2024-02-24T03:25:06.717Z,3.30
2024-02-24T03:26:09.900Z,3.50
2024-02-24T03:27:13.909Z,4.36
2024-02-24T03:28:17.998Z,3.90
2024-02-24T03:29:21.460Z,4.70
2024-02-24T03:30:24.427Z,4.30
2024-02-24T03:31:27.848Z,3.70
2024-02-24T03:32:30.843Z,4.10
2024-02-24T03:33:35.573Z,4.80
2024-02-24T03:34:38.361Z,4.30
2024-02-24T03:35:42.141Z,4.10
2024-02-24T03:36:45.123Z,4.10
2024-02-24T03:37:51.227Z,4.70
2024-02-24T03:38:54.751Z,3.50
2024-02-24T03:39:58.077Z,4.00
2024-02-24T03:41:00.984Z,1.70
2024-02-24T03:42:05.300Z,4.50
2024-02-24T03:43:09.601Z,4.00
2024-02-24T03:44:12.790Z,4.40
2024-02-24T03:45:15.748Z,4.70
2024-02-24T03:46:19.360Z,5.00
2024-02-24T03:47:23.745Z,4.70
2024-02-24T03:48:27.385Z,4.10
2024-02-24T03:49:32.266Z,3.80
2024-02-24T03:50:35.249Z,4.80
2024-02-24T03:51:39.038Z,4.70
2024-02-24T03:52:41.909Z,4.90
2024-02-24T03:53:44.483Z,6.50
2024-02-24T03:54:48.991Z,4.00
2024-02-24T03:55:53.168Z,4.20
2024-02-24T03:56:56.304Z,4.50
2024-02-24T03:57:59.189Z,3.60
2024-02-24T03:59:03.433Z,4.09
2024-02-24T04:00:09.176Z,4.30
2024-02-24T04:01:15.960Z,4.20
2024-02-24T04:02:18.799Z,4.70
2024-02-24T04:03:21.781Z,4.90
2024-02-24T04:04:26.041Z,4.20
2024-02-24T04:05:29.040Z,2.00
2024-02-24T04:06:31.932Z,3.00
2024-02-24T04:07:36.356Z,3.50
2024-02-24T04:08:39.120Z,3.80
2024-02-24T04:09:42.332Z,4.50
2024-02-24T04:10:45.693Z,3.60
2024-02-24T04:11:51.505Z,4.30
2024-02-24T04:12:55.441Z,4.10
2024-02-24T04:13:58.539Z,4.40
2024-02-24T04:15:03.420Z,3.90
2024-02-24T04:16:07.042Z,4.20
2024-02-24T04:17:10.781Z,4.40
2024-02-24T04:18:14.257Z,4.40
2024-02-24T04:19:17.796Z,2.90
2024-02-24T04:20:21.779Z,4.70
2024-02-24T04:21:25.910Z,4.00
2024-02-24T04:22:28.832Z,3.80
2024-02-24T04:23:32.983Z,5.20
2024-02-24T04:24:37.026Z,4.20
2024-02-24T04:25:40.584Z,5.00
2024-02-24T04:26:44.131Z,3.70
2024-02-24T04:27:46.831Z,4.45
2024-02-24T04:28:50.421Z,4.50
2024-02-24T04:29:54.180Z,3.90
2024-02-24T04:30:56.981Z,3.50
2024-02-24T04:32:00.436Z,4.00
2024-02-24T04:33:04.090Z,4.40
2024-02-24T04:34:07.864Z,4.10
2024-02-24T04:35:11.825Z,4.30
2024-02-24T04:36:16.183Z,4.20
2024-02-24T04:37:19.428Z,5.00
2024-02-24T04:38:22.289Z,4.40
2024-02-24T04:39:26.898Z,4.20
2024-02-24T04:40:29.829Z,4.80
2024-02-24T04:41:34.937Z,4.80
2024-02-24T04:42:37.609Z,4.50
2024-02-24T04:43:40.684Z,4.50
2024-02-24T04:44:45.832Z,3.40
2024-02-24T04:45:48.969Z,5.20
2024-02-24T04:46:52.832Z,4.20
2024-02-24T04:47:56.195Z,5.50
2024-02-24T04:48:58.889Z,5.10
2024-02-24T04:50:02.666Z,5.09
2024-02-24T04:51:05.959Z,5.10
2024-02-24T04:52:09.194Z,5.20
2024-02-24T04:53:13.245Z,4.50
2024-02-24T04:54:17.342Z,5.40
2024-02-24T04:55:22.510Z,5.30
2024-02-24T04:56:26.590Z,4.80
2024-02-24T04:57:29.766Z,4.50
2024-02-24T04:58:32.258Z,5.00
2024-02-24T04:59:35.847Z,4.30
2024-02-24T05:00:39.816Z,4.50
2024-02-24T05:01:43.759Z,3.82
2024-02-24T05:02:47.682Z,4.30
2024-02-24T05:03:51.205Z,5.00
2024-02-24T05:04:55.041Z,4.90
2024-02-24T05:05:58.954Z,4.70
2024-02-24T05:07:02.138Z,4.40
2024-02-24T05:08:07.163Z,4.90
2024-02-24T05:09:11.921Z,5.00
2024-02-24T05:10:16.124Z,5.10
2024-02-24T05:11:20.221Z,4.30
2024-02-24T05:12:23.983Z,3.60
2024-02-24T05:13:28.517Z,4.90
2024-02-24T05:14:31.952Z,4.40
2024-02-24T05:15:35.572Z,4.60
2024-02-24T05:16:42.511Z,5.00
2024-02-24T05:17:46.172Z,4.50
2024-02-24T05:18:49.068Z,5.70
2024-02-24T05:19:52.209Z,5.36
2024-02-24T05:20:55.959Z,4.00
2024-02-24T05:21:59.054Z,3.80
2024-02-24T05:23:01.983Z,5.80
2024-02-24T05:24:06.440Z,4.50
2024-02-24T05:25:10.068Z,6.30
2024-02-24T05:26:27.581Z,5.20
2024-02-24T05:27:32.311Z,4.90
2024-02-24T05:28:35.779Z,5.00
2024-02-24T05:29:47.188Z,4.30
2024-02-24T05:30:53.111Z,5.00
2024-02-24T05:31:57.128Z,4.90
2024-02-24T05:32:59.772Z,4.00
2024-02-24T05:34:02.808Z,5.00
2024-02-24T05:35:06.580Z,5.00
2024-02-24T05:36:10.118Z,3.70
2024-02-24T05:37:14.046Z,4.50
2024-02-24T05:38:18.987Z,5.70
2024-02-24T05:39:22.955Z,5.00
2024-02-24T05:40:26.017Z,5.80
2024-02-24T05:41:29.306Z,4.73
2024-02-24T05:42:32.486Z,5.10
2024-02-24T05:43:35.245Z,4.70
2024-02-24T05:44:37.920Z,5.55
2024-02-24T05:45:43.115Z,5.20
2024-02-24T05:46:46.018Z,5.70
2024-02-24T05:47:48.886Z,5.18
2024-02-24T05:48:51.893Z,5.30
2024-02-24T05:49:54.675Z,6.00
2024-02-24T05:50:58.541Z,5.18
2024-02-24T05:52:03.717Z,5.40
2024-02-24T05:53:10.027Z,6.20
2024-02-24T05:54:13.137Z,5.60
2024-02-24T05:55:16.548Z,3.60
2024-02-24T05:56:19.615Z,4.90
2024-02-24T05:57:22.297Z,6.10
2024-02-24T05:58:27.770Z,5.27
2024-02-24T05:59:31.413Z,6.10
2024-02-24T06:00:37.059Z,5.30
2024-02-24T06:01:40.145Z,4.70
2024-02-24T06:02:42.982Z,6.30
2024-02-24T06:03:45.798Z,4.55
2024-02-24T06:04:48.791Z,5.55
2024-02-24T06:05:51.624Z,5.40
2024-02-24T06:06:54.510Z,6.20
2024-02-24T06:08:03.785Z,6.09
2024-02-24T06:09:06.794Z,6.10
2024-02-24T06:10:10.026Z,5.10
2024-02-24T06:11:13.872Z,5.80
2024-02-24T06:12:17.582Z,6.80
2024-02-24T06:13:20.311Z,7.00
2024-02-24T06:14:23.515Z,6.45
2024-02-24T06:15:28.229Z,5.70
2024-02-24T06:16:32.250Z,5.10
2024-02-24T06:17:37.250Z,5.70
2024-02-24T06:18:40.263Z,6.20
2024-02-24T06:19:43.420Z,5.80
2024-02-24T06:20:46.294Z,6.00
2024-02-24T06:21:50.723Z,6.36
2024-02-24T06:22:54.469Z,5.60
2024-02-24T06:23:57.189Z,5.90
2024-02-24T06:24:59.961Z,7.00
2024-02-24T06:26:04.063Z,5.82
2024-02-24T06:27:07.827Z,6.40
2024-02-24T06:28:12.546Z,7.80
2024-02-24T06:29:18.816Z,6.70
2024-02-24T06:30:22.688Z,6.80
2024-02-24T06:31:25.764Z,6.70
2024-02-24T06:32:28.476Z,7.20
2024-02-24T06:33:33.468Z,7.90
2024-02-24T06:34:43.376Z,6.50
2024-02-24T06:35:46.235Z,7.80
2024-02-24T06:36:49.047Z,7.36
2024-02-24T06:37:51.788Z,6.36
2024-02-24T06:38:55.657Z,6.09
2024-02-24T06:39:58.390Z,7.70
2024-02-24T06:41:02.895Z,6.60
2024-02-24T06:42:07.117Z,6.40
2024-02-24T06:43:11.044Z,6.30
2024-02-24T06:44:13.882Z,6.60
2024-02-24T06:45:16.791Z,6.50
2024-02-24T06:46:19.728Z,5.90
2024-02-24T06:47:28.869Z,6.09
2024-02-24T06:48:27.994Z,6.50
2024-02-24T06:49:32.008Z,6.30
2024-02-24T06:50:35.393Z,6.90
2024-02-24T06:51:40.229Z,7.90
2024-02-24T06:52:43.999Z,8.00
2024-02-24T06:53:47.579Z,7.70
2024-02-24T06:54:52.295Z,7.00
2024-02-24T06:55:56.262Z,6.60
2024-02-24T06:57:01.946Z,7.60
2024-02-24T06:58:04.759Z,7.40
2024-02-24T06:59:07.902Z,7.36
2024-02-24T07:00:15.478Z,8.10
2024-02-24T07:01:23.489Z,7.60
2024-02-24T07:02:26.400Z,7.80
2024-02-24T07:03:31.844Z,7.45
2024-02-24T07:04:35.264Z,8.10
2024-02-24T07:05:38.074Z,8.50
2024-02-24T07:06:43.961Z,7.64
2024-02-24T07:07:46.585Z,8.10
2024-02-24T07:08:49.223Z,8.50
2024-02-24T07:09:52.885Z,6.18
2024-02-24T07:10:57.889Z,8.70
2024-02-24T07:12:01.476Z,9.10
2024-02-24T07:13:04.238Z,9.10
2024-02-24T07:14:07.911Z,10.00
2024-02-24T07:15:12.989Z,10.00
2024-02-24T07:16:17.063Z,7.10
2024-02-24T07:17:20.567Z,9.10
2024-02-24T07:18:25.251Z,10.80
2024-02-24T07:19:29.186Z,12.50
2024-02-24T07:20:32.686Z,12.40
2024-02-24T07:21:36.229Z,9.60
2024-02-24T07:22:40.778Z,12.60
2024-02-24T07:23:45.092Z,12.70
2024-02-24T07:24:48.036Z,12.40
2024-02-24T07:25:50.851Z,11.18
2024-02-24T07:26:54.487Z,12.90
2024-02-24T07:27:58.223Z,13.09
2024-02-24T07:29:00.998Z,13.80
2024-02-24T07:30:06.140Z,13.73
2024-02-24T07:31:09.372Z,15.70
2024-02-24T07:32:14.066Z,13.70
2024-02-24T07:33:17.390Z,15.90
2024-02-24T07:34:20.310Z,15.80
2024-02-24T07:35:23.031Z,14.64
2024-02-24T07:36:26.292Z,14.60
2024-02-24T07:37:29.124Z,14.30
2024-02-24T07:38:34.057Z,15.09
2024-02-24T07:39:40.816Z,15.60
2024-02-24T07:40:43.659Z,16.00
2024-02-24T07:41:48.489Z,16.40
2024-02-24T07:42:54.217Z,17.40
2024-02-24T07:43:58.078Z,16.80
2024-02-24T07:45:01.230Z,16.10
2024-02-24T07:46:05.320Z,16.20
2024-02-24T07:47:09.503Z,15.36
2024-02-24T07:48:12.873Z,16.60
2024-02-24T07:49:16.409Z,16.60
2024-02-24T07:50:19.397Z,15.50
2024-02-24T07:51:22.924Z,16.40
2024-02-24T07:52:29.086Z,17.60
2024-02-24T07:53:33.981Z,15.70
2024-02-24T07:54:36.665Z,17.30
2024-02-24T07:55:40.581Z,15.09
2024-02-24T07:56:44.397Z,15.90
2024-02-24T07:57:47.864Z,14.90
2024-02-24T07:58:50.734Z,17.40
2024-02-24T07:59:54.041Z,15.10
2024-02-24T08:00:59.299Z,15.20
2024-02-24T08:02:02.618Z,16.50
2024-02-24T08:03:06.959Z,15.60
2024-02-24T08:04:10.799Z,14.50
2024-02-24T08:05:15.903Z,14.90
2024-02-24T08:06:19.110Z,16.20
2024-02-24T08:07:22.798Z,16.20
2024-02-24T08:08:27.733Z,13.91
2024-02-24T08:09:31.696Z,15.80
2024-02-24T08:10:34.447Z,13.20
2024-02-24T08:11:39.669Z,14.50
2024-02-24T08:12:43.405Z,15.10
2024-02-24T08:13:47.557Z,15.90
2024-02-24T08:14:50.939Z,13.70
2024-02-24T08:15:55.714Z,13.60
2024-02-24T08:16:59.927Z,13.90
2024-02-24T08:18:02.932Z,13.60
2024-02-24T08:19:07.553Z,14.50
2024-02-24T08:20:11.915Z,13.50
2024-02-24T08:21:14.840Z,14.60
2024-02-24T08:22:18.055Z,12.00
2024-02-24T08:23:21.180Z,4.00
2024-02-24T08:24:24.359Z,13.36
2024-02-24T08:25:36.461Z,14.20
2024-02-24T08:26:42.741Z,13.80
2024-02-24T08:27:45.810Z,14.40
2024-02-24T08:28:48.440Z,13.82
2024-02-24T08:29:52.156Z,13.40
2024-02-24T08:30:55.679Z,12.60
2024-02-24T08:31:59.774Z,13.10
2024-02-24T08:33:03.415Z,13.20
2024-02-24T08:34:07.835Z,13.20
2024-02-24T08:35:11.090Z,12.70
2024-02-24T08:36:16.975Z,13.60
2024-02-24T08:37:19.629Z,11.20
2024-02-24T08:38:23.597Z,8.00
2024-02-24T08:39:26.405Z,12.50
2024-02-24T08:40:33.337Z,12.09
2024-02-24T08:41:38.145Z,13.00
2024-02-24T08:42:42.233Z,11.60
2024-02-24T08:43:45.424Z,11.90
2024-02-24T08:44:49.987Z,12.00
2024-02-24T08:45:52.720Z,10.80
2024-02-24T08:46:55.464Z,10.00
2024-02-24T08:47:58.657Z,9.50
2024-02-24T08:49:02.055Z,7.80
2024-02-24T08:50:07.048Z,8.80
2024-02-24T08:51:10.913Z,8.10
2024-02-24T08:52:15.621Z,9.00
2024-02-24T08:53:19.788Z,9.10
2024-02-24T08:54:25.563Z,7.50
2024-02-24T08:55:29.813Z,9.00
2024-02-24T08:56:34.654Z,8.80
2024-02-24T08:57:38.034Z,8.27
2024-02-24T08:58:40.766Z,9.90
2024-02-24T08:59:45.484Z,7.90
2024-02-24T09:00:48.607Z,8.90
2024-02-24T09:01:53.768Z,7.10
2024-02-24T09:02:57.689Z,7.90
2024-02-24T09:04:04.351Z,7.30
2024-02-24T09:05:08.621Z,7.50
2024-02-24T09:06:12.035Z,8.30
2024-02-24T09:07:15.586Z,6.40
2024-02-24T09:08:19.100Z,8.00
2024-02-24T09:09:22.223Z,8.60
2024-02-24T09:10:26.561Z,7.30
2024-02-24T09:11:30.346Z,7.30
2024-02-24T09:12:33.512Z,7.50
2024-02-24T09:13:38.153Z,7.50
2024-02-24T09:14:41.351Z,10.00
2024-02-24T09:15:44.801Z,7.50
2024-02-24T09:16:48.079Z,7.60
2024-02-24T09:17:51.078Z,9.00
2024-02-24T09:18:55.365Z,5.60
2024-02-24T09:19:58.002Z,7.40
2024-02-24T09:21:01.974Z,8.10
2024-02-24T09:22:06.447Z,7.80
2024-02-24T09:23:10.466Z,7.80
2024-02-24T09:24:14.350Z,7.70
2024-02-24T09:25:17.067Z,6.40
2024-02-24T09:26:21.863Z,7.50
2024-02-24T09:27:25.332Z,7.30
2024-02-24T09:28:28.759Z,0.20
2024-02-24T09:29:32.762Z,6.40
2024-02-24T09:30:38.262Z,7.90
2024-02-24T09:31:42.369Z,8.00
2024-02-24T09:32:45.946Z,5.70
2024-02-24T09:33:51.452Z,6.90
2024-02-24T09:34:55.329Z,7.60
2024-02-24T09:35:58.084Z,6.10
2024-02-24T09:37:06.034Z,6.20
2024-02-24T09:38:09.007Z,6.60
2024-02-24T09:39:15.979Z,7.30
2024-02-24T09:40:19.249Z,6.20
2024-02-24T09:41:22.691Z,7.00
2024-02-24T09:42:29.109Z,6.40
2024-02-24T09:43:33.143Z,7.60
2024-02-24T09:44:36.758Z,6.80
2024-02-24T09:46:54.288Z,2.40
2024-02-24T09:47:58.412Z,6.50
2024-02-24T09:49:01.141Z,6.30
2024-02-24T09:50:06.851Z,6.80
2024-02-24T09:51:09.824Z,5.00
2024-02-24T09:52:14.259Z,7.50
2024-02-24T09:53:18.558Z,6.90
2024-02-24T09:54:21.719Z,5.90
2024-02-24T09:55:27.729Z,7.60
2024-02-24T09:56:31.081Z,7.00
2024-02-24T09:57:37.961Z,6.70
2024-02-24T09:59:56.751Z,6.90
2024-02-24T10:01:00.831Z,6.30
2024-02-24T10:02:04.289Z,7.20
2024-02-24T10:03:07.415Z,6.90
2024-02-24T10:04:10.846Z,7.50
2024-02-24T10:06:49.266Z,6.90
2024-02-24T10:07:55.975Z,7.80
2024-02-24T10:09:00.990Z,7.40
2024-02-24T10:10:08.478Z,7.00
2024-02-24T10:11:15.013Z,7.30
2024-02-24T10:12:19.161Z,6.00
2024-02-24T10:13:22.385Z,6.70
2024-02-24T10:14:27.269Z,7.00
2024-02-24T10:15:30.784Z,7.30
2024-02-24T10:16:40.552Z,7.50
2024-02-24T10:17:44.731Z,6.20
2024-02-24T10:18:47.567Z,3.90
2024-02-24T10:19:50.782Z,6.27
2024-02-24T10:20:55.571Z,7.20
2024-02-24T10:23:17.434Z,5.70
2024-02-24T10:24:20.634Z,7.20
2024-02-24T10:25:26.151Z,6.60
2024-02-24T10:26:29.605Z,7.00
2024-02-24T10:27:33.693Z,8.00
2024-02-24T10:28:36.336Z,7.20
2024-02-24T10:29:39.956Z,6.50
2024-02-24T10:30:43.417Z,6.50
2024-02-24T10:31:46.448Z,6.09
2024-02-24T10:32:50.960Z,5.91
2024-02-24T10:33:56.991Z,5.70
2024-02-24T10:34:59.651Z,6.10
2024-02-24T10:36:03.368Z,6.82
2024-02-24T10:37:08.496Z,6.20
2024-02-24T10:38:23.529Z,7.30
2024-02-24T10:39:19.318Z,5.70
2024-02-24T10:40:22.951Z,5.40
2024-02-24T10:41:28.057Z,6.00
2024-02-24T10:42:30.228Z,6.10
2024-02-24T10:43:36.558Z,5.90
2024-02-24T10:44:39.498Z,6.70
2024-02-24T10:45:43.236Z,7.10
2024-02-24T10:46:48.356Z,5.10
2024-02-24T10:47:52.796Z,6.90
2024-02-24T10:48:57.034Z,6.60
2024-02-24T10:50:01.524Z,7.60
2024-02-24T10:51:05.027Z,8.00
2024-02-24T10:52:09.161Z,7.70
2024-02-24T10:53:12.957Z,7.70
2024-02-24T10:54:18.937Z,7.30
2024-02-24T10:55:23.978Z,7.10
2024-02-24T10:56:26.950Z,7.90
2024-02-24T10:57:30.668Z,8.90
2024-02-24T10:58:35.713Z,7.90
2024-02-24T10:59:39.882Z,7.10
2024-02-24T11:00:44.657Z,8.70
2024-02-24T11:01:48.132Z,7.10
2024-02-24T11:02:55.597Z,7.50
2024-02-24T11:03:58.812Z,6.80
2024-02-24T11:05:03.029Z,7.10
2024-02-24T11:06:06.778Z,7.30
2024-02-24T11:07:18.653Z,6.80
2024-02-24T11:08:48.027Z,7.70
2024-02-24T11:09:55.242Z,6.60
2024-02-24T11:12:14.956Z,6.70
2024-02-24T11:13:18.337Z,8.20
2024-02-24T11:14:21.270Z,7.30
2024-02-24T11:15:25.314Z,7.36
2024-02-24T11:16:28.701Z,6.70
2024-02-24T11:17:49.582Z,7.90
2024-02-24T11:18:53.680Z,7.70
2024-02-24T11:19:56.963Z,7.80
2024-02-24T11:21:00.108Z,6.10
2024-02-24T11:22:03.792Z,8.45
2024-02-24T11:23:22.573Z,7.40
2024-02-24T11:25:48.034Z,6.70
2024-02-24T11:26:51.176Z,6.50
2024-02-24T11:27:57.020Z,6.70
2024-02-24T11:29:02.830Z,7.20
2024-02-24T11:30:39.374Z,7.30
2024-02-24T11:31:43.251Z,7.90
2024-02-24T11:32:53.293Z,8.10
2024-02-24T11:35:14.261Z,6.40
2024-02-24T11:36:18.299Z,6.20
2024-02-24T11:37:24.800Z,7.00
2024-02-24T11:38:28.660Z,7.50
2024-02-24T11:39:31.912Z,6.40
2024-02-24T11:40:36.317Z,7.00
2024-02-24T11:41:40.856Z,7.40
2024-02-24T11:42:44.603Z,6.50
2024-02-24T11:43:47.929Z,6.70
2024-02-24T11:44:51.360Z,4.60
2024-02-24T11:45:53.974Z,6.20
2024-02-24T11:48:21.911Z,7.40
2024-02-24T11:49:25.297Z,7.80
2024-02-24T11:50:28.496Z,7.10
2024-02-24T11:51:31.301Z,7.27
2024-02-24T11:52:34.424Z,6.45
2024-02-24T11:53:38.685Z,6.70
2024-02-24T11:54:45.918Z,6.80
2024-02-24T11:55:48.573Z,6.90
2024-02-24T11:56:51.577Z,6.73
2024-02-24T11:57:54.327Z,5.60
2024-02-24T11:58:57.737Z,6.70
2024-02-24T12:00:00.469Z,6.91
2024-02-24T12:01:04.884Z,7.20
2024-02-24T12:02:07.922Z,7.10
2024-02-24T12:03:13.104Z,8.00
2024-02-24T12:05:38.735Z,4.10
2024-02-24T12:06:43.483Z,7.10
2024-02-24T12:07:49.186Z,7.20
2024-02-24T12:08:52.803Z,6.70
2024-02-24T12:09:56.783Z,8.90
2024-02-24T12:11:00.809Z,4.40
2024-02-24T12:12:05.481Z,5.80
2024-02-24T12:13:10.927Z,6.70
2024-02-24T12:14:14.747Z,6.00
2024-02-24T12:15:18.784Z,6.90
2024-02-24T12:16:25.394Z,4.00
2024-02-24T12:18:49.233Z,2.90
2024-02-24T12:19:52.590Z,7.00
2024-02-24T12:20:55.908Z,6.80
2024-02-24T12:21:59.035Z,6.70
2024-02-24T12:23:06.181Z,6.50
2024-02-24T12:24:10.848Z,7.10
2024-02-24T12:25:18.032Z,5.70
2024-02-24T12:26:23.820Z,6.40
2024-02-24T12:27:30.070Z,6.50
2024-02-24T12:28:32.370Z,6.60
2024-02-24T12:29:35.818Z,6.40
2024-02-24T12:30:41.242Z,6.40
2024-02-24T12:31:43.943Z,5.70
2024-02-24T12:32:47.764Z,6.27
2024-02-24T12:33:51.285Z,6.80
2024-02-24T12:35:10.527Z,6.30
2024-02-24T12:36:15.412Z,6.90
2024-02-24T12:37:18.731Z,6.50
2024-02-24T12:38:22.755Z,6.40
2024-02-24T12:39:26.495Z,6.00
2024-02-24T12:40:30.844Z,5.80
2024-02-24T12:41:34.295Z,7.70
2024-02-24T12:42:40.024Z,6.55
2024-02-24T12:43:43.177Z,6.30
2024-02-24T12:44:48.294Z,4.90
2024-02-24T12:45:53.503Z,5.40
2024-02-24T12:46:56.673Z,5.70
2024-02-24T12:47:59.332Z,5.00
2024-02-24T12:49:04.075Z,5.60
2024-02-24T12:50:07.647Z,5.30
2024-02-24T12:51:11.401Z,5.80
2024-02-24T12:52:14.253Z,5.60
2024-02-24T12:53:17.833Z,5.10
2024-02-24T12:54:20.907Z,5.40
2024-02-24T12:55:25.929Z,5.50
2024-02-24T12:56:28.792Z,4.90
2024-02-24T12:57:32.054Z,5.73
2024-02-24T12:58:36.077Z,4.80
2024-02-24T12:59:39.502Z,4.10
2024-02-24T13:00:43.122Z,5.50
2024-02-24T13:01:45.811Z,5.80
2024-02-24T13:02:49.672Z,5.10
2024-02-24T13:03:55.011Z,5.70
2024-02-24T13:04:59.305Z,4.40
2024-02-24T13:06:03.721Z,4.80
2024-02-24T13:07:08.283Z,5.70
2024-02-24T13:08:12.368Z,3.20
2024-02-24T13:09:15.396Z,5.60
2024-02-24T13:10:18.894Z,4.60
2024-02-24T13:11:22.539Z,5.10
2024-02-24T13:12:25.358Z,4.10
2024-02-24T13:13:28.798Z,4.36
2024-02-24T13:14:33.148Z,4.00
2024-02-24T13:15:36.930Z,4.50
2024-02-24T13:16:40.537Z,4.50
2024-02-24T13:17:43.618Z,4.70
2024-02-24T13:18:47.564Z,4.40
2024-02-24T13:19:53.089Z,4.60
2024-02-24T13:20:56.750Z,5.10
2024-02-24T13:22:00.745Z,5.10
2024-02-24T13:23:04.323Z,5.10
2024-02-24T13:24:07.335Z,4.90
2024-02-24T13:25:11.300Z,5.80
2024-02-24T13:26:15.695Z,5.60
2024-02-24T13:27:18.384Z,5.30
2024-02-24T13:28:22.043Z,6.40
2024-02-24T13:29:26.264Z,6.30
2024-02-24T13:30:31.375Z,6.90
2024-02-24T13:31:34.097Z,6.30
2024-02-24T13:32:38.049Z,6.09
2024-02-24T13:33:41.624Z,6.40
2024-02-24T13:34:46.573Z,7.20
2024-02-24T13:35:50.164Z,6.10
2024-02-24T13:36:53.945Z,6.80
2024-02-24T13:37:56.624Z,7.50
2024-02-24T13:39:00.158Z,7.30
2024-02-24T13:40:05.022Z,7.20
2024-02-24T13:41:08.078Z,6.90
2024-02-24T13:42:11.997Z,7.00
2024-02-24T13:43:15.056Z,6.40
2024-02-24T13:44:17.813Z,7.50
2024-02-24T13:45:20.338Z,4.50
2024-02-24T13:46:23.277Z,7.20
2024-02-24T13:47:27.282Z,6.36
2024-02-24T13:48:30.358Z,6.50
2024-02-24T13:49:34.200Z,8.00
2024-02-24T13:50:37.629Z,7.50
2024-02-24T13:51:40.688Z,6.36
2024-02-24T13:52:44.159Z,7.30
2024-02-24T13:53:48.215Z,6.80
2024-02-24T13:54:52.927Z,7.00
2024-02-24T13:55:55.813Z,7.90
2024-02-24T13:56:59.507Z,7.30
2024-02-24T13:58:04.231Z,6.70
2024-02-24T13:59:07.702Z,7.90
2024-02-24T14:00:12.314Z,7.20
2024-02-24T14:01:15.535Z,7.50
2024-02-24T14:02:18.837Z,7.50
2024-02-24T14:03:21.874Z,6.30
2024-02-24T14:04:25.187Z,5.80
2024-02-24T14:05:29.781Z,6.60
2024-02-24T14:06:34.766Z,6.80
2024-02-24T14:07:38.474Z,7.10
2024-02-24T14:08:41.484Z,6.20
2024-02-24T14:09:55.362Z,6.50
2024-02-24T14:10:58.029Z,6.70
2024-02-24T14:12:01.554Z,6.10
2024-02-24T14:13:05.826Z,5.80
2024-02-24T14:14:10.104Z,6.30
2024-02-24T14:15:13.726Z,6.90
2024-02-24T14:16:16.939Z,5.90
2024-02-24T14:17:20.221Z,6.36
2024-02-24T14:18:23.259Z,6.80
2024-02-24T14:19:27.220Z,6.20
2024-02-24T14:20:35.862Z,6.00
2024-02-24T14:21:40.451Z,6.70
2024-02-24T14:22:43.712Z,6.50
2024-02-24T14:23:46.271Z,5.80
2024-02-24T14:24:49.227Z,5.80
2024-02-24T14:25:52.426Z,5.20
2024-02-24T14:26:57.092Z,5.70
2024-02-24T14:28:00.118Z,5.90
2024-02-24T14:29:04.325Z,5.82
2024-02-24T14:30:09.487Z,4.20
2024-02-24T14:31:12.516Z,5.80
2024-02-24T14:32:16.775Z,6.30